Time;durP1;ratioP1;P1;durP2;ratioP2;P2;SDS_P1;SDS_P2;PMS_P1;PMS_P2;Temp;Humidity;BMP_temperature;BMP_pressure;BME280_temperature;BME280_humidity;BME280_pressure;Samples;Min_cycle;Max_cycle;Signal;HPM_P1;HPM_P2
2022/03/08 00:00:49;;;;;;;57.38;31.02;;;;;;;;;;5015793;28;20084;-57
2022/03/08 00:03:15;;;;;;;55.75;30.02;;;;;;;;;;5016159;28;20022;-56
2022/03/08 00:05:41;;;;;;;53.35;29.05;;;;;;;;;;5015773;28;20022;-54
2022/03/08 00:08:07;;;;;;;57.78;31.27;;;;;;;;;;5015343;28;20037;-55
2022/03/08 00:10:34;;;;;;;53.67;29.30;;;;;;;;;;5015712;28;20022;-54
2022/03/08 00:13:00;;;;;;;58.65;30.55;;;;;;;;;;5015572;28;20061;-56
2022/03/08 00:15:26;;;;;;;54.50;28.35;;;;;;;;;;5015537;28;20034;-52
2022/03/08 00:17:56;;;;;;;52.65;27.52;;;;;;;;;;5015487;28;20033;-52
2022/03/08 00:20:22;;;;;;;54.30;29.02;;;;;;;;;;5015486;28;20184;-54
2022/03/08 00:22:49;;;;;;;55.75;29.02;;;;;;;;;;5014867;28;20025;-53
2022/03/08 00:25:15;;;;;;;50.47;27.83;;;;;;;;;;5015103;28;20034;-52
2022/03/08 00:27:51;;;;;;;51.97;28.30;;;;;;;;;;5015189;28;20076;-53
2022/03/08 00:30:22;;;;;;;57.15;29.83;;;;;;;;;;5014840;28;20036;-55
2022/03/08 00:32:49;;;;;;;52.22;29.13;;;;;;;;;;5015538;28;20021;-52
2022/03/08 00:35:16;;;;;;;54.05;29.55;;;;;;;;;;5014528;28;20055;-56
2022/03/08 00:37:42;;;;;;;52.53;28.17;;;;;;;;;;5015298;28;20026;-52
2022/03/08 00:40:10;;;;;;;53.75;30.23;;;;;;;;;;5014887;28;20050;-51
2022/03/08 00:42:36;;;;;;;54.15;28.08;;;;;;;;;;5014369;28;20058;-52
2022/03/08 00:45:03;;;;;;;51.95;28.67;;;;;;;;;;5014783;28;20391;-54
2022/03/08 00:47:29;;;;;;;54.60;29.60;;;;;;;;;;5014895;28;20068;-53
2022/03/08 00:49:56;;;;;;;55.47;28.55;;;;;;;;;;5014648;28;20026;-55
2022/03/08 00:52:22;;;;;;;53.42;28.52;;;;;;;;;;5015254;28;20037;-52
2022/03/08 00:54:48;;;;;;;54.95;28.30;;;;;;;;;;5014589;28;20026;-50
2022/03/08 00:57:14;;;;;;;55.78;28.75;;;;;;;;;;5014619;28;20026;-55
2022/03/08 00:59:40;;;;;;;54.88;27.10;;;;;;;;;;5014657;28;20459;-54
2022/03/08 01:02:06;;;;;;;51.75;26.52;;;;;;;;;;5014942;28;20022;-53
2022/03/08 01:04:32;;;;;;;51.28;26.77;;;;;;;;;;5014692;28;20033;-53
2022/03/08 01:06:59;;;;;;;48.08;26.63;;;;;;;;;;5014546;28;20493;-54
2022/03/08 01:09:25;;;;;;;52.28;27.25;;;;;;;;;;5014264;28;20025;-56
2022/03/08 01:11:51;;;;;;;51.50;28.02;;;;;;;;;;5014096;28;20028;-54
2022/03/08 01:14:17;;;;;;;49.10;26.92;;;;;;;;;;5014482;28;20029;-55
2022/03/08 01:16:43;;;;;;;51.03;27.52;;;;;;;;;;5014663;28;20064;-53
2022/03/08 01:19:10;;;;;;;54.17;27.13;;;;;;;;;;5014315;28;20367;-51
2022/03/08 01:21:36;;;;;;;47.65;24.58;;;;;;;;;;5014209;28;20029;-53
2022/03/08 01:24:03;;;;;;;48.15;25.30;;;;;;;;;;5014131;28;20121;-53
2022/03/08 01:26:29;;;;;;;50.67;26.48;;;;;;;;;;5014315;28;20041;-53
2022/03/08 01:28:56;;;;;;;49.78;26.50;;;;;;;;;;5014000;28;20470;-53
2022/03/08 01:31:22;;;;;;;47.30;26.45;;;;;;;;;;5013804;28;20100;-51
2022/03/08 01:33:49;;;;;;;49.13;27.52;;;;;;;;;;5013947;28;20033;-51
2022/03/08 01:36:16;;;;;;;52.35;27.42;;;;;;;;;;5014130;28;20045;-49
2022/03/08 01:38:42;;;;;;;48.28;26.40;;;;;;;;;;5013841;28;20018;-47
2022/03/08 01:41:08;;;;;;;53.38;28.30;;;;;;;;;;5013881;28;20022;-54
2022/03/08 01:43:35;;;;;;;56.70;29.75;;;;;;;;;;5013959;28;20053;-49
2022/03/08 01:46:01;;;;;;;52.72;28.65;;;;;;;;;;5013844;28;20038;-48
2022/03/08 01:48:28;;;;;;;55.85;29.05;;;;;;;;;;5013989;28;20036;-48
2022/03/08 01:50:56;;;;;;;52.92;27.67;;;;;;;;;;5013731;28;20022;-50
2022/03/08 01:53:22;;;;;;;57.33;29.05;;;;;;;;;;5012877;28;20033;-48
2022/03/08 01:55:48;;;;;;;51.58;28.60;;;;;;;;;;5013887;28;20022;-48
2022/03/08 01:58:14;;;;;;;62.70;31.20;;;;;;;;;;5014043;28;20033;-50
2022/03/08 02:00:40;;;;;;;56.42;30.02;;;;;;;;;;5013565;28;20378;-55
2022/03/08 02:03:06;;;;;;;60.03;30.90;;;;;;;;;;5013990;28;20363;-54
2022/03/08 02:05:32;;;;;;;55.13;29.85;;;;;;;;;;5012734;28;20378;-49
2022/03/08 02:07:59;;;;;;;69.25;34.75;;;;;;;;;;5013504;28;20021;-48
2022/03/08 02:10:25;;;;;;;52.00;27.15;;;;;;;;;;5013874;28;20101;-51
2022/03/08 02:12:51;;;;;;;51.53;27.98;;;;;;;;;;5013777;28;20014;-51
2022/03/08 02:15:22;;;;;;;60.83;30.92;;;;;;;;;;5012095;28;20072;-48
2022/03/08 02:17:48;;;;;;;53.60;29.25;;;;;;;;;;5013871;28;20014;-50
2022/03/08 02:20:15;;;;;;;52.47;28.25;;;;;;;;;;5013176;28;20112;-52
2022/03/08 02:22:43;;;;;;;52.17;28.38;;;;;;;;;;5013646;28;20034;-48
2022/03/08 02:25:09;;;;;;;56.75;28.88;;;;;;;;;;5013754;28;20034;-50
2022/03/08 02:27:38;;;;;;;56.63;29.42;;;;;;;;;;5013399;28;20118;-54
2022/03/08 02:30:05;;;;;;;58.28;30.35;;;;;;;;;;5013411;28;20026;-54
2022/03/08 02:32:31;;;;;;;53.80;29.10;;;;;;;;;;5013427;28;20022;-52
2022/03/08 02:35:04;;;;;;;54.00;28.42;;;;;;;;;;5013317;28;20030;-50
2022/03/08 02:37:37;;;;;;;57.50;28.65;;;;;;;;;;5013577;28;20039;-52
2022/03/08 02:40:03;;;;;;;61.50;30.10;;;;;;;;;;5013326;28;20024;-50
2022/03/08 02:42:29;;;;;;;52.17;28.55;;;;;;;;;;5012943;28;20050;-54
2022/03/08 02:44:55;;;;;;;52.78;28.27;;;;;;;;;;5013763;28;20038;-50
2022/03/08 02:47:21;;;;;;;52.78;28.05;;;;;;;;;;5013610;28;20018;-51
2022/03/08 02:49:47;;;;;;;58.50;28.15;;;;;;;;;;5013183;28;20026;-50
2022/03/08 02:52:14;;;;;;;56.15;30.23;;;;;;;;;;5013367;28;20026;-51
2022/03/08 02:54:40;;;;;;;52.63;27.52;;;;;;;;;;5013349;28;20022;-51
2022/03/08 02:57:06;;;;;;;56.00;29.05;;;;;;;;;;5013012;28;20033;-54
2022/03/08 02:59:32;;;;;;;63.30;31.40;;;;;;;;;;5013320;28;20022;-52
2022/03/08 03:01:58;;;;;;;60.67;33.10;;;;;;;;;;5013868;28;20068;-55
2022/03/08 03:04:24;;;;;;;59.65;31.85;;;;;;;;;;5013033;28;20110;-51
2022/03/08 03:06:50;;;;;;;70.47;33.40;;;;;;;;;;5016529;28;20109;-53
2022/03/08 03:09:16;;;;;;;69.10;34.40;;;;;;;;;;5016629;28;20036;-53
2022/03/08 03:11:43;;;;;;;69.25;34.65;;;;;;;;;;5016789;28;20032;-51
2022/03/08 03:14:09;;;;;;;65.10;32.75;;;;;;;;;;5016848;28;20026;-53
2022/03/08 03:16:35;;;;;;;63.75;33.20;;;;;;;;;;5016579;28;20029;-55
2022/03/08 03:19:01;;;;;;;64.18;33.97;;;;;;;;;;5016727;28;20030;-55
2022/03/08 03:21:27;;;;;;;66.18;33.58;;;;;;;;;;5016401;28;20029;-55
2022/03/08 03:23:53;;;;;;;70.03;35.78;;;;;;;;;;5016446;28;20068;-52
2022/03/08 03:26:20;;;;;;;77.10;37.95;;;;;;;;;;5016505;28;20040;-50
2022/03/08 03:28:46;;;;;;;70.88;35.22;;;;;;;;;;5016625;28;20021;-54
2022/03/08 03:31:12;;;;;;;77.72;36.60;;;;;;;;;;5016146;28;20370;-52
2022/03/08 03:33:38;;;;;;;74.00;36.92;;;;;;;;;;5015155;28;20026;-52
2022/03/08 03:36:04;;;;;;;84.60;40.55;;;;;;;;;;5016310;28;20496;-50
2022/03/08 03:38:30;;;;;;;73.15;37.08;;;;;;;;;;5016023;28;20136;-48
2022/03/08 03:40:57;;;;;;;70.47;35.88;;;;;;;;;;5016053;28;20079;-52
2022/03/08 03:43:23;;;;;;;67.60;34.30;;;;;;;;;;5016263;28;20088;-50
2022/03/08 03:45:49;;;;;;;73.07;34.58;;;;;;;;;;5014483;28;20038;-57
2022/03/08 03:48:15;;;;;;;71.18;34.50;;;;;;;;;;5016434;28;20024;-54
2022/03/08 03:50:42;;;;;;;73.88;36.35;;;;;;;;;;5016078;28;20017;-54
2022/03/08 03:53:08;;;;;;;79.25;36.67;;;;;;;;;;5015372;28;20036;-54
2022/03/08 03:55:34;;;;;;;71.20;34.45;;;;;;;;;;5016259;28;20026;-54
2022/03/08 03:58:00;;;;;;;68.78;34.22;;;;;;;;;;5015667;28;20022;-55
2022/03/08 04:00:27;;;;;;;82.90;38.72;;;;;;;;;;5015735;28;20394;-52
2022/03/08 04:02:53;;;;;;;69.70;34.58;;;;;;;;;;5015555;28;20033;-56
2022/03/08 04:05:20;;;;;;;71.95;35.13;;;;;;;;;;5015374;28;20033;-52
2022/03/08 04:07:46;;;;;;;74.60;35.10;;;;;;;;;;5015425;28;20088;-53
2022/03/08 04:10:15;;;;;;;68.45;33.50;;;;;;;;;;5015964;28;20026;-54
2022/03/08 04:12:41;;;;;;;72.78;36.53;;;;;;;;;;5015589;28;20433;-53
2022/03/08 04:15:08;;;;;;;66.40;34.55;;;;;;;;;;5015554;28;20057;-54
2022/03/08 04:17:34;;;;;;;74.85;34.78;;;;;;;;;;5014468;28;20029;-54
2022/03/08 04:20:00;;;;;;;68.57;34.42;;;;;;;;;;5014822;28;20501;-54
2022/03/08 04:22:26;;;;;;;69.10;33.13;;;;;;;;;;5015747;28;20021;-52
2022/03/08 04:24:53;;;;;;;69.15;34.83;;;;;;;;;;5015379;28;20068;-51
2022/03/08 04:27:20;;;;;;;69.78;34.05;;;;;;;;;;5014697;28;20049;-55
2022/03/08 04:29:46;;;;;;;71.38;34.30;;;;;;;;;;5015599;28;20021;-54
2022/03/08 04:32:12;;;;;;;73.65;35.45;;;;;;;;;;5015022;28;20021;-54
2022/03/08 04:34:38;;;;;;;71.88;34.92;;;;;;;;;;5015098;28;20026;-53
2022/03/08 04:37:04;;;;;;;72.50;35.67;;;;;;;;;;5015415;28;20072;-55
2022/03/08 04:39:30;;;;;;;89.07;42.03;;;;;;;;;;5015008;28;20072;-56
2022/03/08 04:41:56;;;;;;;77.15;36.45;;;;;;;;;;5014585;28;20045;-54
2022/03/08 04:44:23;;;;;;;71.07;35.95;;;;;;;;;;5014992;28;20040;-53
2022/03/08 04:46:49;;;;;;;99.20;45.67;;;;;;;;;;5015093;28;20018;-54
2022/03/08 04:49:15;;;;;;;113.07;52.75;;;;;;;;;;5014642;28;20075;-51
2022/03/08 04:51:41;;;;;;;81.13;39.15;;;;;;;;;;5014656;28;20033;-56
2022/03/08 04:54:07;;;;;;;78.82;38.15;;;;;;;;;;5014298;28;20022;-52
2022/03/08 04:56:34;;;;;;;90.65;42.13;;;;;;;;;;5014521;28;20391;-54
2022/03/08 04:59:00;;;;;;;79.07;38.20;;;;;;;;;;5014918;28;20484;-53
2022/03/08 05:01:26;;;;;;;243.30;96.90;;;;;;;;;;5014186;28;20026;-55
2022/03/08 05:03:52;;;;;;;79.85;38.72;;;;;;;;;;5014714;28;20026;-54
2022/03/08 05:06:19;;;;;;;76.47;37.10;;;;;;;;;;5014406;28;20049;-51
2022/03/08 05:08:45;;;;;;;74.57;36.67;;;;;;;;;;5014109;28;20474;-54
2022/03/08 05:11:11;;;;;;;155.48;62.78;;;;;;;;;;5014443;28;20029;-53
2022/03/08 05:13:37;;;;;;;73.00;35.55;;;;;;;;;;5012859;28;20026;-55
2022/03/08 05:16:04;;;;;;;144.73;53.13;;;;;;;;;;5014220;28;20037;-55
2022/03/08 05:18:30;;;;;;;135.98;52.83;;;;;;;;;;5014271;28;20022;-53
2022/03/08 05:20:56;;;;;;;174.25;64.20;;;;;;;;;;5014385;28;20387;-51
2022/03/08 05:23:23;;;;;;;169.55;60.88;;;;;;;;;;5014220;28;20030;-52
2022/03/08 05:25:49;;;;;;;191.43;65.70;;;;;;;;;;5014356;28;20379;-54
2022/03/08 05:28:15;;;;;;;143.40;51.20;;;;;;;;;;5014320;28;20026;-54
2022/03/08 05:30:42;;;;;;;42.00;24.52;;;;;;;;;;5014074;28;20109;-52
2022/03/08 05:33:08;;;;;;;86.35;35.78;;;;;;;;;;5013964;28;20379;-54
2022/03/08 05:35:34;;;;;;;65.13;30.38;;;;;;;;;;5012777;28;20382;-55
2022/03/08 05:38:01;;;;;;;74.07;32.75;;;;;;;;;;5013529;28;20014;-57
2022/03/08 05:40:28;;;;;;;43.22;24.58;;;;;;;;;;5014062;28;20028;-56
2022/03/08 05:42:54;;;;;;;204.82;104.97;;;;;;;;;;5013719;28;20099;-56
2022/03/08 05:45:20;;;;;;;51.55;29.70;;;;;;;;;;5013756;28;20028;-54
2022/03/08 05:47:47;;;;;;;45.80;25.10;;;;;;;;;;5005718;28;20056;-53
2022/03/08 05:50:14;;;;;;;63.38;33.42;;;;;;;;;;4974750;28;20508;-55
2022/03/08 05:52:40;;;;;;;57.22;30.40;;;;;;;;;;4974617;28;20117;-54
2022/03/08 05:55:07;;;;;;;51.53;28.52;;;;;;;;;;4974326;28;20062;-54
2022/03/08 05:57:33;;;;;;;45.10;25.23;;;;;;;;;;4974728;28;20023;-56
2022/03/08 05:59:59;;;;;;;58.30;31.20;;;;;;;;;;4974721;28;20439;-52
2022/03/08 06:02:26;;;;;;;66.07;32.50;;;;;;;;;;4974920;28;20035;-54
2022/03/08 06:04:52;;;;;;;80.32;39.15;;;;;;;;;;4974471;28;20034;-55
2022/03/08 06:07:21;;;;;;;105.07;49.10;;;;;;;;;;4973373;28;20022;-53
2022/03/08 06:09:47;;;;;;;110.90;52.03;;;;;;;;;;4975177;28;20040;-53
2022/03/08 06:12:13;;;;;;;118.88;55.95;;;;;;;;;;4974356;28;20027;-55
2022/03/08 06:14:39;;;;;;;85.22;46.33;;;;;;;;;;4975097;28;20085;-53
2022/03/08 06:17:06;;;;;;;82.68;42.42;;;;;;;;;;4974923;28;20023;-56
2022/03/08 06:19:33;;;;;;;85.03;42.67;;;;;;;;;;4974162;28;20082;-58
2022/03/08 06:22:00;;;;;;;85.28;42.25;;;;;;;;;;4975328;28;20047;-56
2022/03/08 06:24:26;;;;;;;88.25;43.88;;;;;;;;;;4974572;28;20031;-55
2022/03/08 06:26:52;;;;;;;81.32;42.28;;;;;;;;;;4974206;28;20077;-54
2022/03/08 06:29:18;;;;;;;91.10;44.85;;;;;;;;;;4974742;28;20023;-55
2022/03/08 06:31:45;;;;;;;128.07;58.20;;;;;;;;;;4974502;28;20029;-55
2022/03/08 06:34:11;;;;;;;155.13;72.00;;;;;;;;;;4974104;28;20031;-54
2022/03/08 06:36:39;;;;;;;114.93;53.97;;;;;;;;;;4974888;28;20037;-55
2022/03/08 06:39:05;;;;;;;104.78;51.20;;;;;;;;;;4974324;28;20035;-57
2022/03/08 06:41:32;;;;;;;89.15;44.40;;;;;;;;;;4995724;28;20046;-57
2022/03/08 06:44:00;;;;;;;94.75;47.15;;;;;;;;;;4997836;28;20027;-53
2022/03/08 06:46:26;;;;;;;90.47;44.72;;;;;;;;;;4997193;28;20498;-54
2022/03/08 06:48:53;;;;;;;91.78;45.38;;;;;;;;;;4997464;28;20433;-51
2022/03/08 06:51:19;;;;;;;75.53;40.08;;;;;;;;;;4997702;28;20026;-51
2022/03/08 06:53:45;;;;;;;88.22;42.33;;;;;;;;;;4997317;28;20050;-50
2022/03/08 06:56:11;;;;;;;118.15;56.22;;;;;;;;;;4997550;28;20027;-53
2022/03/08 06:58:38;;;;;;;64.85;33.97;;;;;;;;;;4996729;28;20572;-53
2022/03/08 07:01:04;;;;;;;72.88;37.58;;;;;;;;;;4996344;28;20503;-53
2022/03/08 07:03:30;;;;;;;79.15;39.60;;;;;;;;;;4997113;28;20501;-51
2022/03/08 07:05:56;;;;;;;65.93;34.95;;;;;;;;;;4995749;28;20037;-51
2022/03/08 07:08:22;;;;;;;58.63;32.38;;;;;;;;;;4995621;28;20094;-52
2022/03/08 07:10:50;;;;;;;53.40;30.75;;;;;;;;;;4996067;28;20471;-49
2022/03/08 07:13:16;;;;;;;57.63;30.83;;;;;;;;;;4996721;28;20117;-51
2022/03/08 07:15:42;;;;;;;56.67;30.60;;;;;;;;;;4996536;28;20031;-51
2022/03/08 07:18:08;;;;;;;56.47;30.80;;;;;;;;;;4997047;28;20088;-55
2022/03/08 07:20:34;;;;;;;56.15;30.80;;;;;;;;;;4996830;28;20023;-53
2022/03/08 07:23:01;;;;;;;59.55;31.90;;;;;;;;;;4995445;28;20054;-57
2022/03/08 07:25:27;;;;;;;58.67;31.42;;;;;;;;;;4996807;28;20030;-51
2022/03/08 07:27:54;;;;;;;56.28;31.50;;;;;;;;;;4995793;28;20026;-54
2022/03/08 07:30:20;;;;;;;57.15;31.23;;;;;;;;;;4996673;28;20030;-57
2022/03/08 07:32:48;;;;;;;60.72;32.25;;;;;;;;;;4996644;28;20054;-57
2022/03/08 07:35:14;;;;;;;58.65;30.88;;;;;;;;;;4996261;28;20153;-51
2022/03/08 07:37:40;;;;;;;58.45;30.83;;;;;;;;;;4997186;28;20029;-54
2022/03/08 07:40:08;;;;;;;62.97;33.33;;;;;;;;;;4996570;28;20506;-55
2022/03/08 07:42:34;;;;;;;61.22;33.30;;;;;;;;;;4996246;28;20475;-57
2022/03/08 07:45:00;;;;;;;55.00;31.70;;;;;;;;;;4996561;28;20038;-54
2022/03/08 07:47:26;;;;;;;58.35;32.95;;;;;;;;;;4996910;28;20101;-53
2022/03/08 07:49:52;;;;;;;56.60;30.42;;;;;;;;;;4996282;28;20433;-55
2022/03/08 07:52:19;;;;;;;58.05;31.05;;;;;;;;;;4995371;28;20023;-54
2022/03/08 07:54:45;;;;;;;59.13;31.48;;;;;;;;;;4996252;28;20180;-55
2022/03/08 07:57:11;;;;;;;58.38;33.33;;;;;;;;;;4995991;28;20422;-54
2022/03/08 07:59:37;;;;;;;58.53;31.65;;;;;;;;;;4996786;28;20030;-54
2022/03/08 08:02:03;;;;;;;54.25;31.90;;;;;;;;;;4996443;28;20027;-51
2022/03/08 08:04:29;;;;;;;63.85;33.35;;;;;;;;;;4995787;28;20034;-54
2022/03/08 08:06:56;;;;;;;64.70;34.53;;;;;;;;;;4996295;28;20480;-55
2022/03/08 08:09:22;;;;;;;61.63;33.95;;;;;;;;;;4995473;28;20160;-52
2022/03/08 08:11:49;;;;;;;60.25;33.92;;;;;;;;;;4995911;28;20026;-54
2022/03/08 08:14:16;;;;;;;56.15;32.92;;;;;;;;;;4995574;28;20057;-55
2022/03/08 08:16:42;;;;;;;48.78;29.58;;;;;;;;;;4994798;28;20032;-51
2022/03/08 08:19:08;;;;;;;50.55;28.58;;;;;;;;;;4994858;28;20024;-55
2022/03/08 08:21:35;;;;;;;50.13;29.08;;;;;;;;;;4994556;28;20018;-52
2022/03/08 08:24:01;;;;;;;51.92;28.85;;;;;;;;;;4994959;28;20161;-51
2022/03/08 08:26:28;;;;;;;50.65;29.73;;;;;;;;;;4995838;28;20034;-53
2022/03/08 08:28:54;;;;;;;42.83;25.25;;;;;;;;;;4994605;28;20468;-57
2022/03/08 08:31:21;;;;;;;48.38;26.60;;;;;;;;;;4993672;28;20088;-52
2022/03/08 08:33:47;;;;;;;44.60;25.10;;;;;;;;;;4993752;28;20022;-54
2022/03/08 08:36:13;;;;;;;49.03;27.90;;;;;;;;;;4994924;28;20026;-55
2022/03/08 08:38:39;;;;;;;45.97;25.63;;;;;;;;;;4995319;28;20101;-54
2022/03/08 08:41:05;;;;;;;41.70;23.70;;;;;;;;;;4994884;28;20023;-54
2022/03/08 08:43:31;;;;;;;41.08;24.60;;;;;;;;;;4995701;28;20113;-55
2022/03/08 08:45:58;;;;;;;37.50;22.95;;;;;;;;;;4993378;28;20034;-53
2022/03/08 08:48:24;;;;;;;37.70;23.02;;;;;;;;;;4994339;28;20030;-53
2022/03/08 08:50:50;;;;;;;34.78;22.23;;;;;;;;;;4995331;28;20466;-54
2022/03/08 08:53:16;;;;;;;38.63;23.50;;;;;;;;;;4994550;28;20022;-53
2022/03/08 08:55:42;;;;;;;38.85;23.63;;;;;;;;;;4995269;28;20074;-53
2022/03/08 08:58:08;;;;;;;41.95;24.48;;;;;;;;;;4994061;28;20026;-54
2022/03/08 09:00:35;;;;;;;39.33;23.90;;;;;;;;;;4994943;28;20066;-53
2022/03/08 09:03:06;;;;;;;35.53;23.20;;;;;;;;;;4994639;28;20018;-48
2022/03/08 09:05:32;;;;;;;45.33;25.80;;;;;;;;;;4993637;28;20042;-54
2022/03/08 09:07:58;;;;;;;42.53;25.15;;;;;;;;;;4994776;28;20033;-53
2022/03/08 09:10:25;;;;;;;41.78;24.13;;;;;;;;;;4995790;28;20027;-54
2022/03/08 09:12:53;;;;;;;46.85;26.85;;;;;;;;;;4996297;28;20022;-50
2022/03/08 09:15:20;;;;;;;41.05;24.40;;;;;;;;;;4994172;28;20382;-51
2022/03/08 09:17:46;;;;;;;42.67;24.52;;;;;;;;;;4995628;28;20023;-51
2022/03/08 09:20:15;;;;;;;44.15;25.15;;;;;;;;;;4995490;28;20065;-51
2022/03/08 09:22:41;;;;;;;38.10;22.75;;;;;;;;;;4997467;28;20513;-51
2022/03/08 09:25:08;;;;;;;36.55;23.38;;;;;;;;;;4994859;28;20038;-52
2022/03/08 09:27:35;;;;;;;41.85;23.13;;;;;;;;;;4994154;28;20038;-48
2022/03/08 09:30:01;;;;;;;44.83;24.55;;;;;;;;;;4994865;28;20049;-56
2022/03/08 09:32:27;;;;;;;42.47;23.98;;;;;;;;;;4994702;28;20054;-52
2022/03/08 09:34:53;;;;;;;44.50;25.73;;;;;;;;;;4994378;28;20022;-48
2022/03/08 09:37:20;;;;;;;37.38;22.10;;;;;;;;;;4994325;28;20026;-52
2022/03/08 09:39:46;;;;;;;34.53;21.85;;;;;;;;;;4995017;28;20022;-53
2022/03/08 09:42:12;;;;;;;41.72;26.30;;;;;;;;;;4994247;28;20046;-55
2022/03/08 09:44:38;;;;;;;47.92;27.30;;;;;;;;;;4994462;28;20030;-53
2022/03/08 09:47:05;;;;;;;38.33;22.50;;;;;;;;;;4994460;28;20030;-55
2022/03/08 09:49:32;;;;;;;46.15;25.63;;;;;;;;;;4993840;28;20096;-57
2022/03/08 09:51:59;;;;;;;35.97;21.90;;;;;;;;;;4994436;28;20026;-52
2022/03/08 09:54:25;;;;;;;37.63;22.77;;;;;;;;;;4995007;28;20026;-54
2022/03/08 09:56:51;;;;;;;42.83;25.58;;;;;;;;;;4994056;28;20113;-56
2022/03/08 09:59:18;;;;;;;40.30;24.95;;;;;;;;;;4994488;28;20128;-52
2022/03/08 10:01:45;;;;;;;37.83;23.42;;;;;;;;;;4994266;28;20398;-51
2022/03/08 10:04:16;;;;;;;41.38;24.60;;;;;;;;;;4993905;28;20022;-55
2022/03/08 10:06:43;;;;;;;34.15;21.70;;;;;;;;;;4994845;28;20022;-51
2022/03/08 10:09:10;;;;;;;43.22;23.10;;;;;;;;;;4994386;28;20027;-53
2022/03/08 10:11:39;;;;;;;44.40;23.85;;;;;;;;;;4994302;28;20447;-54
2022/03/08 10:14:05;;;;;;;39.75;22.40;;;;;;;;;;4993975;28;20085;-51
2022/03/08 10:16:42;;;;;;;42.22;24.63;;;;;;;;;;4997435;28;20101;-52
2022/03/08 10:19:09;;;;;;;39.30;23.00;;;;;;;;;;4998826;28;20026;-53
2022/03/08 10:21:36;;;;;;;37.47;20.80;;;;;;;;;;4998218;28;20022;-51
2022/03/08 10:24:08;;;;;;;31.77;19.60;;;;;;;;;;4997813;28;20494;-54
2022/03/08 10:26:42;;;;;;;37.08;22.20;;;;;;;;;;4998042;28;20030;-52
2022/03/08 10:29:09;;;;;;;35.60;20.65;;;;;;;;;;4998392;28;20025;-53
2022/03/08 10:31:35;;;;;;;36.15;20.77;;;;;;;;;;4997560;28;20030;-50
2022/03/08 10:34:05;;;;;;;37.25;23.40;;;;;;;;;;4997963;28;20022;-51
2022/03/08 10:36:34;;;;;;;33.60;20.92;;;;;;;;;;4997864;28;20541;-53
2022/03/08 10:39:03;;;;;;;37.50;20.98;;;;;;;;;;4997549;28;20442;-49
2022/03/08 10:41:30;;;;;;;34.88;20.65;;;;;;;;;;4997503;28;20053;-53
2022/03/08 10:43:56;;;;;;;38.30;22.42;;;;;;;;;;4997769;28;20029;-53
2022/03/08 10:46:22;;;;;;;35.75;20.25;;;;;;;;;;4997439;28;20030;-49
2022/03/08 10:48:49;;;;;;;49.42;27.67;;;;;;;;;;4997755;28;20026;-53
2022/03/08 10:51:16;;;;;;;47.10;25.70;;;;;;;;;;4995842;28;20089;-53
2022/03/08 10:53:50;;;;;;;48.15;26.02;;;;;;;;;;4996810;28;20027;-61
2022/03/08 10:56:23;;;;;;;58.95;30.33;;;;;;;;;;4996472;28;20132;-54
2022/03/08 10:58:53;;;;;;;50.80;28.10;;;;;;;;;;4996160;28;20088;-49
2022/03/08 11:01:19;;;;;;;40.60;21.95;;;;;;;;;;4997426;28;20033;-51
2022/03/08 11:03:58;;;;;;;33.28;20.60;;;;;;;;;;4997474;28;20022;-53
2022/03/08 11:06:26;;;;;;;36.88;22.52;;;;;;;;;;4996804;28;20383;-51
2022/03/08 11:08:52;;;;;;;39.05;22.58;;;;;;;;;;4997493;28;20060;-53
2022/03/08 11:11:20;;;;;;;42.25;25.08;;;;;;;;;;4997507;28;20022;-53
2022/03/08 11:13:48;;;;;;;37.50;21.98;;;;;;;;;;4996912;28;20015;-56
2022/03/08 11:16:14;;;;;;;37.85;22.20;;;;;;;;;;4997288;28;20124;-54
2022/03/08 11:18:44;;;;;;;36.10;20.50;;;;;;;;;;4996961;28;20015;-53
2022/03/08 11:21:10;;;;;;;34.22;20.25;;;;;;;;;;4996879;28;20411;-55
2022/03/08 11:23:36;;;;;;;36.85;20.80;;;;;;;;;;4997021;28;20034;-54
2022/03/08 11:26:03;;;;;;;36.72;21.10;;;;;;;;;;4996077;28;20483;-56
2022/03/08 11:28:29;;;;;;;39.40;22.67;;;;;;;;;;4997180;28;20426;-55
2022/03/08 11:30:57;;;;;;;33.58;19.63;;;;;;;;;;4997024;28;20096;-55
2022/03/08 11:33:41;;;;;;;34.47;20.27;;;;;;;;;;4996640;28;20468;-52
2022/03/08 11:36:19;;;;;;;34.38;20.23;;;;;;;;;;4996943;28;20103;-55
2022/03/08 11:39:05;;;;;;;36.60;22.15;;;;;;;;;;4997004;28;20054;-52
2022/03/08 11:41:31;;;;;;;37.53;21.55;;;;;;;;;;4995121;28;20407;-53
2022/03/08 11:43:58;;;;;;;38.58;22.30;;;;;;;;;;4996782;28;20375;-50
2022/03/08 11:46:24;;;;;;;38.25;21.92;;;;;;;;;;4996938;28;20034;-50
2022/03/08 11:48:50;;;;;;;35.08;21.08;;;;;;;;;;4996031;28;20018;-52
2022/03/08 11:51:17;;;;;;;41.17;22.98;;;;;;;;;;4996148;28;20034;-53
2022/03/08 11:53:46;;;;;;;41.95;24.48;;;;;;;;;;4996541;28;20026;-52
2022/03/08 11:56:16;;;;;;;36.65;21.95;;;;;;;;;;4996462;28;20057;-52
2022/03/08 11:58:49;;;;;;;35.30;19.63;;;;;;;;;;4996425;28;20034;-55
2022/03/08 12:01:23;;;;;;;39.58;21.42;;;;;;;;;;4995922;28;20787;-51
2022/03/08 12:03:54;;;;;;;31.38;18.98;;;;;;;;;;4996360;28;20022;-55
2022/03/08 12:06:30;;;;;;;30.48;18.35;;;;;;;;;;4996281;28;20038;-49
2022/03/08 12:09:00;;;;;;;32.50;20.05;;;;;;;;;;4995933;28;20026;-49
2022/03/08 12:11:26;;;;;;;35.50;21.97;;;;;;;;;;4996051;28;20073;-55
2022/03/08 12:14:00;;;;;;;34.25;20.63;;;;;;;;;;4996816;28;20029;-55
2022/03/08 12:16:27;;;;;;;34.38;19.27;;;;;;;;;;4996047;28;20026;-55
2022/03/08 12:18:54;;;;;;;28.58;17.48;;;;;;;;;;4994694;28;20030;-51
2022/03/08 12:21:21;;;;;;;42.58;24.00;;;;;;;;;;4995706;28;20026;-54
2022/03/08 12:23:50;;;;;;;36.55;21.05;;;;;;;;;;4995443;28;20049;-55
2022/03/08 12:26:28;;;;;;;36.70;20.67;;;;;;;;;;4996225;28;20034;-53
2022/03/08 12:29:06;;;;;;;38.40;21.90;;;;;;;;;;4995930;28;20482;-54
2022/03/08 12:31:33;;;;;;;33.60;20.65;;;;;;;;;;4996436;28;20030;-55
2022/03/08 12:34:00;;;;;;;37.03;21.30;;;;;;;;;;4995571;28;20030;-56
2022/03/08 12:36:29;;;;;;;32.83;20.95;;;;;;;;;;4995806;28;20034;-55
2022/03/08 12:38:55;;;;;;;40.25;23.30;;;;;;;;;;4995052;28;20033;-55
2022/03/08 12:41:25;;;;;;;29.52;19.85;;;;;;;;;;4995583;28;20064;-48
2022/03/08 12:43:58;;;;;;;29.88;19.00;;;;;;;;;;4995605;28;20053;-54
2022/03/08 12:46:25;;;;;;;32.78;18.13;;;;;;;;;;4995283;28;20084;-53
2022/03/08 12:48:53;;;;;;;28.88;19.00;;;;;;;;;;4996086;28;20367;-51
2022/03/08 12:51:22;;;;;;;34.60;21.70;;;;;;;;;;4995255;28;20375;-55
2022/03/08 12:53:57;;;;;;;27.10;17.27;;;;;;;;;;4995346;28;20088;-53
2022/03/08 12:56:24;;;;;;;31.52;18.40;;;;;;;;;;4995747;28;20097;-54
2022/03/08 12:58:51;;;;;;;34.25;20.65;;;;;;;;;;4995005;28;20030;-52
2022/03/08 13:01:17;;;;;;;28.05;17.85;;;;;;;;;;4995090;28;20068;-55
2022/03/08 13:03:47;;;;;;;27.58;17.58;;;;;;;;;;4995343;28;20022;-51
2022/03/08 13:06:13;;;;;;;25.00;18.05;;;;;;;;;;4994853;28;20038;-51
2022/03/08 13:08:40;;;;;;;28.55;19.25;;;;;;;;;;4994935;28;20060;-53
2022/03/08 13:11:08;;;;;;;30.10;19.90;;;;;;;;;;4994778;28;20181;-56
2022/03/08 13:13:38;;;;;;;26.30;17.70;;;;;;;;;;4995578;28;20030;-55
2022/03/08 13:16:05;;;;;;;31.10;20.00;;;;;;;;;;4995016;28;20097;-53
2022/03/08 13:18:42;;;;;;;38.80;22.83;;;;;;;;;;4994688;28;20026;-54
2022/03/08 13:21:09;;;;;;;29.73;19.30;;;;;;;;;;4995189;28;20022;-56
2022/03/08 13:23:36;;;;;;;28.73;18.92;;;;;;;;;;4994738;28;20379;-52
2022/03/08 13:26:04;;;;;;;32.75;20.48;;;;;;;;;;4994136;28;20033;-52
2022/03/08 13:28:31;;;;;;;36.08;22.48;;;;;;;;;;4995292;28;20375;-48
2022/03/08 13:30:59;;;;;;;49.72;29.33;;;;;;;;;;4994755;28;20105;-52
2022/03/08 13:33:28;;;;;;;36.65;22.10;;;;;;;;;;4994448;28;20084;-56
2022/03/08 13:35:54;;;;;;;28.58;19.15;;;;;;;;;;4994615;28;20383;-52
2022/03/08 13:38:22;;;;;;;32.13;18.77;;;;;;;;;;4994681;28;20029;-55
2022/03/08 13:40:49;;;;;;;31.10;19.65;;;;;;;;;;4994013;28;20014;-56
2022/03/08 13:43:16;;;;;;;32.22;20.00;;;;;;;;;;4994901;28;20490;-58
2022/03/08 13:45:42;;;;;;;35.65;20.60;;;;;;;;;;4994495;28;20486;-52
2022/03/08 13:48:10;;;;;;;35.70;20.65;;;;;;;;;;4994225;28;20113;-52
2022/03/08 13:50:37;;;;;;;29.30;19.27;;;;;;;;;;4994987;28;20431;-54
2022/03/08 13:53:09;;;;;;;26.92;17.80;;;;;;;;;;4994155;28;20029;-55
2022/03/08 13:55:35;;;;;;;36.60;20.98;;;;;;;;;;4994713;28;20064;-50
2022/03/08 13:58:06;;;;;;;31.55;19.90;;;;;;;;;;4994069;28;20495;-53
2022/03/08 14:00:33;;;;;;;34.95;21.30;;;;;;;;;;4994130;28;20065;-51
2022/03/08 14:03:00;;;;;;;38.22;21.70;;;;;;;;;;4994280;28;20066;-52
2022/03/08 14:05:27;;;;;;;41.50;24.48;;;;;;;;;;4993976;28;20088;-55
2022/03/08 14:08:01;;;;;;;36.55;23.13;;;;;;;;;;4993769;28;20026;-53
2022/03/08 14:10:27;;;;;;;41.42;25.15;;;;;;;;;;4995054;28;20030;-54
2022/03/08 14:12:54;;;;;;;43.83;26.08;;;;;;;;;;4994207;28;20062;-54
2022/03/08 14:15:21;;;;;;;41.67;25.23;;;;;;;;;;4993810;28;20045;-53